sensor_id;sensor_type;location;lat;lon;timestamp;P1;durP1;ratioP1;P2;durP2;ratioP2
63444;SDS011;49573;47.682;9.170;2022-12-08T00:02:22;17.98;;;9.68;;
63444;SDS011;49573;47.682;9.170;2022-12-08T00:05:09;18.80;;;10.10;;
63444;SDS011;49573;47.682;9.170;2022-12-08T00:08:13;15.77;;;8.88;;
63444;SDS011;49573;47.682;9.170;2022-12-08T00:11:18;14.93;;;8.38;;
63444;SDS011;49573;47.682;9.170;2022-12-08T00:14:04;19.50;;;10.30;;
63444;SDS011;49573;47.682;9.170;2022-12-08T00:16:52;18.45;;;10.70;;
63444;SDS011;49573;47.682;9.170;2022-12-08T00:19:39;16.90;;;9.75;;
63444;SDS011;49573;47.682;9.170;2022-12-08T00:22:25;17.33;;;9.40;;
63444;SDS011;49573;47.682;9.170;2022-12-08T00:25:13;15.57;;;8.93;;
63444;SDS011;49573;47.682;9.170;2022-12-08T00:27:59;14.23;;;8.53;;
63444;SDS011;49573;47.682;9.170;2022-12-08T00:30:45;18.05;;;9.32;;
63444;SDS011;49573;47.682;9.170;2022-12-08T00:36:20;18.20;;;9.63;;
63444;SDS011;49573;47.682;9.170;2022-12-08T00:39:06;17.95;;;9.23;;
63444;SDS011;49573;47.682;9.170;2022-12-08T00:41:52;20.50;;;10.40;;
63444;SDS011;49573;47.682;9.170;2022-12-08T00:44:56;18.05;;;10.13;;
63444;SDS011;49573;47.682;9.170;2022-12-08T00:47:42;17.10;;;9.52;;
63444;SDS011;49573;47.682;9.170;2022-12-08T00:50:29;17.08;;;9.18;;
63444;SDS011;49573;47.682;9.170;2022-12-08T00:53:15;16.90;;;9.35;;
63444;SDS011;49573;47.682;9.170;2022-12-08T00:56:02;18.85;;;9.75;;
63444;SDS011;49573;47.682;9.170;2022-12-08T00:58:48;18.58;;;9.43;;
63444;SDS011;49573;47.682;9.170;2022-12-08T01:01:34;18.00;;;9.93;;
63444;SDS011;49573;47.682;9.170;2022-12-08T01:04:20;22.10;;;10.60;;
63444;SDS011;49573;47.682;9.170;2022-12-08T01:07:08;17.42;;;10.07;;
63444;SDS011;49573;47.682;9.170;2022-12-08T01:09:54;18.00;;;10.10;;
63444;SDS011;49573;47.682;9.170;2022-12-08T01:12:42;17.10;;;9.65;;
63444;SDS011;49573;47.682;9.170;2022-12-08T01:15:28;19.90;;;10.23;;
63444;SDS011;49573;47.682;9.170;2022-12-08T01:18:14;20.42;;;10.25;;
63444;SDS011;49573;47.682;9.170;2022-12-08T01:21:03;17.70;;;9.57;;
63444;SDS011;49573;47.682;9.170;2022-12-08T01:23:51;17.92;;;9.30;;
63444;SDS011;49573;47.682;9.170;2022-12-08T01:26:38;17.70;;;9.07;;
63444;SDS011;49573;47.682;9.170;2022-12-08T01:29:25;15.50;;;9.20;;
63444;SDS011;49573;47.682;9.170;2022-12-08T01:32:11;16.83;;;9.18;;
63444;SDS011;49573;47.682;9.170;2022-12-08T01:34:57;15.15;;;8.75;;
63444;SDS011;49573;47.682;9.170;2022-12-08T01:37:43;17.30;;;8.95;;
63444;SDS011;49573;47.682;9.170;2022-12-08T01:40:31;16.33;;;9.55;;
63444;SDS011;49573;47.682;9.170;2022-12-08T01:43:18;18.38;;;8.90;;
63444;SDS011;49573;47.682;9.170;2022-12-08T01:46:05;17.88;;;9.82;;
63444;SDS011;49573;47.682;9.170;2022-12-08T01:48:52;18.80;;;9.63;;
63444;SDS011;49573;47.682;9.170;2022-12-08T01:51:41;22.58;;;10.95;;
63444;SDS011;49573;47.682;9.170;2022-12-08T01:54:32;17.10;;;9.43;;
63444;SDS011;49573;47.682;9.170;2022-12-08T01:57:23;20.23;;;10.93;;
63444;SDS011;49573;47.682;9.170;2022-12-08T02:00:13;22.73;;;10.13;;
63444;SDS011;49573;47.682;9.170;2022-12-08T02:03:01;16.38;;;8.73;;
63444;SDS011;49573;47.682;9.170;2022-12-08T02:05:49;17.65;;;9.85;;
63444;SDS011;49573;47.682;9.170;2022-12-08T02:08:38;18.63;;;10.35;;
63444;SDS011;49573;47.682;9.170;2022-12-08T02:11:25;22.58;;;10.07;;
63444;SDS011;49573;47.682;9.170;2022-12-08T02:14:13;17.63;;;9.80;;
63444;SDS011;49573;47.682;9.170;2022-12-08T02:17:02;18.15;;;9.55;;
63444;SDS011;49573;47.682;9.170;2022-12-08T02:20:06;15.77;;;8.55;;
63444;SDS011;49573;47.682;9.170;2022-12-08T02:23:05;17.23;;;9.25;;
63444;SDS011;49573;47.682;9.170;2022-12-08T02:26:21;16.42;;;8.93;;
63444;SDS011;49573;47.682;9.170;2022-12-08T02:29:45;15.63;;;8.63;;
63444;SDS011;49573;47.682;9.170;2022-12-08T02:36:14;15.93;;;9.00;;
63444;SDS011;49573;47.682;9.170;2022-12-08T02:39:08;17.95;;;8.95;;
63444;SDS011;49573;47.682;9.170;2022-12-08T02:42:04;15.68;;;8.55;;
63444;SDS011;49573;47.682;9.170;2022-12-08T02:44:56;15.45;;;8.80;;
63444;SDS011;49573;47.682;9.170;2022-12-08T02:47:45;16.63;;;9.00;;
63444;SDS011;49573;47.682;9.170;2022-12-08T02:50:32;17.70;;;8.88;;
63444;SDS011;49573;47.682;9.170;2022-12-08T02:53:19;15.05;;;8.52;;
63444;SDS011;49573;47.682;9.170;2022-12-08T02:56:08;14.30;;;8.57;;
63444;SDS011;49573;47.682;9.170;2022-12-08T02:59:05;15.40;;;8.82;;
63444;SDS011;49573;47.682;9.170;2022-12-08T03:02:08;17.83;;;8.85;;
63444;SDS011;49573;47.682;9.170;2022-12-08T03:05:10;21.40;;;9.48;;
63444;SDS011;49573;47.682;9.170;2022-12-08T03:08:05;15.93;;;9.35;;
63444;SDS011;49573;47.682;9.170;2022-12-08T03:11:00;19.15;;;9.18;;
63444;SDS011;49573;47.682;9.170;2022-12-08T03:13:50;16.23;;;9.18;;
63444;SDS011;49573;47.682;9.170;2022-12-08T03:16:39;14.63;;;8.77;;
63444;SDS011;49573;47.682;9.170;2022-12-08T03:19:28;19.88;;;9.52;;
63444;SDS011;49573;47.682;9.170;2022-12-08T03:22:19;17.05;;;9.63;;
63444;SDS011;49573;47.682;9.170;2022-12-08T03:25:09;16.30;;;9.00;;
63444;SDS011;49573;47.682;9.170;2022-12-08T03:27:59;15.93;;;8.40;;
63444;SDS011;49573;47.682;9.170;2022-12-08T03:30:45;13.70;;;8.18;;
63444;SDS011;49573;47.682;9.170;2022-12-08T03:33:34;16.35;;;8.65;;
63444;SDS011;49573;47.682;9.170;2022-12-08T03:36:24;16.45;;;9.02;;
63444;SDS011;49573;47.682;9.170;2022-12-08T03:39:10;15.13;;;8.25;;
63444;SDS011;49573;47.682;9.170;2022-12-08T03:41:57;17.58;;;9.18;;
63444;SDS011;49573;47.682;9.170;2022-12-08T03:44:44;15.30;;;8.43;;
63444;SDS011;49573;47.682;9.170;2022-12-08T03:47:30;16.13;;;8.85;;
63444;SDS011;49573;47.682;9.170;2022-12-08T03:50:16;15.27;;;8.30;;
63444;SDS011;49573;47.682;9.170;2022-12-08T03:53:03;16.23;;;8.82;;
63444;SDS011;49573;47.682;9.170;2022-12-08T03:55:49;15.38;;;8.52;;
63444;SDS011;49573;47.682;9.170;2022-12-08T03:58:35;16.02;;;9.07;;
63444;SDS011;49573;47.682;9.170;2022-12-08T04:01:22;16.90;;;9.45;;
63444;SDS011;49573;47.682;9.170;2022-12-08T04:04:09;14.63;;;8.75;;
63444;SDS011;49573;47.682;9.170;2022-12-08T04:06:55;16.27;;;9.32;;
63444;SDS011;49573;47.682;9.170;2022-12-08T04:09:41;13.32;;;7.65;;
63444;SDS011;49573;47.682;9.170;2022-12-08T04:12:27;16.75;;;9.13;;
63444;SDS011;49573;47.682;9.170;2022-12-08T04:15:13;13.73;;;8.10;;
63444;SDS011;49573;47.682;9.170;2022-12-08T04:18:00;17.80;;;9.32;;
63444;SDS011;49573;47.682;9.170;2022-12-08T04:20:47;15.40;;;8.77;;
63444;SDS011;49573;47.682;9.170;2022-12-08T04:23:33;16.10;;;8.88;;
63444;SDS011;49573;47.682;9.170;2022-12-08T04:26:19;16.60;;;9.00;;
63444;SDS011;49573;47.682;9.170;2022-12-08T04:29:05;14.30;;;8.07;;
63444;SDS011;49573;47.682;9.170;2022-12-08T04:31:51;15.02;;;8.20;;
63444;SDS011;49573;47.682;9.170;2022-12-08T04:34:38;14.68;;;8.52;;
63444;SDS011;49573;47.682;9.170;2022-12-08T04:37:24;15.07;;;8.05;;
63444;SDS011;49573;47.682;9.170;2022-12-08T04:40:11;14.40;;;7.72;;
63444;SDS011;49573;47.682;9.170;2022-12-08T04:42:58;13.82;;;7.97;;
63444;SDS011;49573;47.682;9.170;2022-12-08T04:45:44;18.05;;;8.23;;
63444;SDS011;49573;47.682;9.170;2022-12-08T04:48:30;11.80;;;8.02;;
63444;SDS011;49573;47.682;9.170;2022-12-08T04:51:18;13.35;;;7.30;;
63444;SDS011;49573;47.682;9.170;2022-12-08T04:54:05;14.75;;;7.85;;
63444;SDS011;49573;47.682;9.170;2022-12-08T04:56:51;12.07;;;6.55;;
63444;SDS011;49573;47.682;9.170;2022-12-08T04:59:37;10.88;;;6.35;;
63444;SDS011;49573;47.682;9.170;2022-12-08T05:02:23;13.32;;;6.18;;
63444;SDS011;49573;47.682;9.170;2022-12-08T05:05:09;11.80;;;5.95;;
63444;SDS011;49573;47.682;9.170;2022-12-08T05:07:57;12.55;;;6.18;;
63444;SDS011;49573;47.682;9.170;2022-12-08T05:10:43;10.30;;;5.97;;
63444;SDS011;49573;47.682;9.170;2022-12-08T05:13:29;15.05;;;5.80;;
63444;SDS011;49573;47.682;9.170;2022-12-08T05:16:16;9.55;;;5.60;;
63444;SDS011;49573;47.682;9.170;2022-12-08T05:19:02;10.15;;;5.75;;
63444;SDS011;49573;47.682;9.170;2022-12-08T05:21:48;17.42;;;6.07;;
63444;SDS011;49573;47.682;9.170;2022-12-08T05:24:36;10.18;;;5.95;;
63444;SDS011;49573;47.682;9.170;2022-12-08T05:27:22;10.63;;;5.82;;
63444;SDS011;49573;47.682;9.170;2022-12-08T05:30:09;10.52;;;5.68;;
63444;SDS011;49573;47.682;9.170;2022-12-08T05:32:55;11.23;;;5.88;;
63444;SDS011;49573;47.682;9.170;2022-12-08T05:35:41;10.63;;;5.82;;
63444;SDS011;49573;47.682;9.170;2022-12-08T05:38:27;11.15;;;6.47;;
63444;SDS011;49573;47.682;9.170;2022-12-08T05:41:15;11.97;;;6.33;;
63444;SDS011;49573;47.682;9.170;2022-12-08T05:44:03;12.38;;;6.32;;
63444;SDS011;49573;47.682;9.170;2022-12-08T05:46:49;12.07;;;6.00;;
63444;SDS011;49573;47.682;9.170;2022-12-08T05:49:35;10.95;;;6.30;;
63444;SDS011;49573;47.682;9.170;2022-12-08T05:52:21;11.50;;;6.57;;
63444;SDS011;49573;47.682;9.170;2022-12-08T05:55:07;9.75;;;5.55;;
63444;SDS011;49573;47.682;9.170;2022-12-08T05:57:55;11.60;;;6.63;;
63444;SDS011;49573;47.682;9.170;2022-12-08T06:00:41;12.48;;;6.75;;
63444;SDS011;49573;47.682;9.170;2022-12-08T06:03:28;13.57;;;7.32;;
63444;SDS011;49573;47.682;9.170;2022-12-08T06:06:14;18.10;;;9.18;;
63444;SDS011;49573;47.682;9.170;2022-12-08T06:09:00;17.60;;;9.67;;
63444;SDS011;49573;47.682;9.170;2022-12-08T06:11:46;14.63;;;7.28;;
63444;SDS011;49573;47.682;9.170;2022-12-08T06:14:34;14.23;;;6.23;;
63444;SDS011;49573;47.682;9.170;2022-12-08T06:17:20;12.63;;;7.07;;
63444;SDS011;49573;47.682;9.170;2022-12-08T06:20:06;11.63;;;6.28;;
63444;SDS011;49573;47.682;9.170;2022-12-08T06:22:53;10.43;;;6.20;;
63444;SDS011;49573;47.682;9.170;2022-12-08T06:25:39;11.20;;;6.40;;
63444;SDS011;49573;47.682;9.170;2022-12-08T06:28:25;10.90;;;6.43;;
63444;SDS011;49573;47.682;9.170;2022-12-08T06:31:14;14.63;;;7.53;;
63444;SDS011;49573;47.682;9.170;2022-12-08T06:34:01;11.20;;;7.00;;
63444;SDS011;49573;47.682;9.170;2022-12-08T06:36:47;13.73;;;7.30;;
63444;SDS011;49573;47.682;9.170;2022-12-08T06:39:33;10.98;;;6.22;;
63444;SDS011;49573;47.682;9.170;2022-12-08T06:42:19;14.82;;;7.38;;
63444;SDS011;49573;47.682;9.170;2022-12-08T06:45:31;13.43;;;6.90;;
63444;SDS011;49573;47.682;9.170;2022-12-08T06:48:19;12.93;;;6.90;;
63444;SDS011;49573;47.682;9.170;2022-12-08T06:51:06;12.48;;;7.22;;
63444;SDS011;49573;47.682;9.170;2022-12-08T06:53:53;13.73;;;6.93;;
63444;SDS011;49573;47.682;9.170;2022-12-08T06:56:39;12.20;;;6.75;;
63444;SDS011;49573;47.682;9.170;2022-12-08T06:59:25;14.25;;;6.65;;
63444;SDS011;49573;47.682;9.170;2022-12-08T07:02:11;12.48;;;7.00;;
63444;SDS011;49573;47.682;9.170;2022-12-08T07:04:59;12.45;;;6.88;;
63444;SDS011;49573;47.682;9.170;2022-12-08T07:07:45;9.77;;;5.80;;
63444;SDS011;49573;47.682;9.170;2022-12-08T07:10:31;11.52;;;6.57;;
63444;SDS011;49573;47.682;9.170;2022-12-08T07:13:17;14.32;;;5.78;;
63444;SDS011;49573;47.682;9.170;2022-12-08T07:16:04;11.32;;;6.43;;
63444;SDS011;49573;47.682;9.170;2022-12-08T07:18:51;10.27;;;6.05;;
63444;SDS011;49573;47.682;9.170;2022-12-08T07:21:38;11.80;;;6.78;;
63444;SDS011;49573;47.682;9.170;2022-12-08T07:24:24;14.73;;;7.07;;
63444;SDS011;49573;47.682;9.170;2022-12-08T07:27:10;10.90;;;5.97;;
63444;SDS011;49573;47.682;9.170;2022-12-08T07:29:57;14.25;;;5.95;;
63444;SDS011;49573;47.682;9.170;2022-12-08T07:32:43;11.55;;;5.90;;
63444;SDS011;49573;47.682;9.170;2022-12-08T07:35:29;11.77;;;6.93;;
63444;SDS011;49573;47.682;9.170;2022-12-08T07:38:16;13.10;;;7.30;;
63444;SDS011;49573;47.682;9.170;2022-12-08T07:41:02;14.38;;;7.78;;
63444;SDS011;49573;47.682;9.170;2022-12-08T07:43:49;13.80;;;8.23;;
63444;SDS011;49573;47.682;9.170;2022-12-08T07:46:35;16.50;;;8.80;;
63444;SDS011;49573;47.682;9.170;2022-12-08T07:49:21;18.65;;;10.23;;
63444;SDS011;49573;47.682;9.170;2022-12-08T07:52:07;15.43;;;8.43;;
63444;SDS011;49573;47.682;9.170;2022-12-08T07:54:55;16.00;;;8.80;;
63444;SDS011;49573;47.682;9.170;2022-12-08T07:57:41;18.25;;;9.65;;
63444;SDS011;49573;47.682;9.170;2022-12-08T08:00:27;13.63;;;7.75;;
63444;SDS011;49573;47.682;9.170;2022-12-08T08:03:13;15.85;;;8.95;;
63444;SDS011;49573;47.682;9.170;2022-12-08T08:06:01;13.32;;;8.43;;
63444;SDS011;49573;47.682;9.170;2022-12-08T08:08:48;14.60;;;8.38;;
63444;SDS011;49573;47.682;9.170;2022-12-08T08:11:35;18.63;;;10.60;;
63444;SDS011;49573;47.682;9.170;2022-12-08T08:14:22;16.98;;;9.07;;
63444;SDS011;49573;47.682;9.170;2022-12-08T08:17:08;15.45;;;8.85;;
63444;SDS011;49573;47.682;9.170;2022-12-08T08:19:54;15.18;;;8.68;;
63444;SDS011;49573;47.682;9.170;2022-12-08T08:22:40;17.27;;;9.67;;
63444;SDS011;49573;47.682;9.170;2022-12-08T08:25:26;21.20;;;12.10;;
63444;SDS011;49573;47.682;9.170;2022-12-08T08:28:14;16.48;;;9.43;;
63444;SDS011;49573;47.682;9.170;2022-12-08T08:31:00;13.98;;;9.40;;
63444;SDS011;49573;47.682;9.170;2022-12-08T08:33:46;15.30;;;7.97;;
63444;SDS011;49573;47.682;9.170;2022-12-08T08:36:34;14.63;;;7.93;;
63444;SDS011;49573;47.682;9.170;2022-12-08T08:39:20;13.70;;;7.93;;
63444;SDS011;49573;47.682;9.170;2022-12-08T08:42:06;14.98;;;8.27;;
63444;SDS011;49573;47.682;9.170;2022-12-08T08:44:53;15.48;;;8.10;;
63444;SDS011;49573;47.682;9.170;2022-12-08T08:47:39;13.85;;;7.38;;
63444;SDS011;49573;47.682;9.170;2022-12-08T08:50:26;15.15;;;8.75;;
63444;SDS011;49573;47.682;9.170;2022-12-08T08:53:12;14.15;;;8.30;;
63444;SDS011;49573;47.682;9.170;2022-12-08T08:55:58;16.45;;;8.48;;
63444;SDS011;49573;47.682;9.170;2022-12-08T08:58:45;13.70;;;7.95;;
63444;SDS011;49573;47.682;9.170;2022-12-08T09:01:33;14.30;;;8.00;;
63444;SDS011;49573;47.682;9.170;2022-12-08T09:04:20;15.15;;;8.52;;
63444;SDS011;49573;47.682;9.170;2022-12-08T09:07:06;12.73;;;7.68;;
63444;SDS011;49573;47.682;9.170;2022-12-08T09:09:53;17.40;;;8.55;;
63444;SDS011;49573;47.682;9.170;2022-12-08T09:12:39;18.15;;;8.43;;
63444;SDS011;49573;47.682;9.170;2022-12-08T09:15:25;14.88;;;8.40;;
63444;SDS011;49573;47.682;9.170;2022-12-08T09:18:13;14.77;;;7.78;;
63444;SDS011;49573;47.682;9.170;2022-12-08T09:21:02;15.68;;;7.82;;
63444;SDS011;49573;47.682;9.170;2022-12-08T09:23:49;15.07;;;7.97;;
63444;SDS011;49573;47.682;9.170;2022-12-08T09:26:36;18.00;;;8.32;;
63444;SDS011;49573;47.682;9.170;2022-12-08T09:29:23;20.20;;;9.60;;
63444;SDS011;49573;47.682;9.170;2022-12-08T09:32:09;14.52;;;8.35;;
63444;SDS011;49573;47.682;9.170;2022-12-08T09:34:56;14.98;;;8.48;;
63444;SDS011;49573;47.682;9.170;2022-12-08T09:37:42;16.67;;;9.10;;
63444;SDS011;49573;47.682;9.170;2022-12-08T09:40:28;17.60;;;9.63;;
63444;SDS011;49573;47.682;9.170;2022-12-08T09:43:24;13.10;;;7.53;;
63444;SDS011;49573;47.682;9.170;2022-12-08T09:46:24;16.00;;;7.43;;
63444;SDS011;49573;47.682;9.170;2022-12-08T09:49:15;12.93;;;7.47;;
63444;SDS011;49573;47.682;9.170;2022-12-08T09:52:05;12.57;;;7.47;;
63444;SDS011;49573;47.682;9.170;2022-12-08T09:55:05;15.20;;;7.78;;
63444;SDS011;49573;47.682;9.170;2022-12-08T09:57:59;14.43;;;8.27;;
63444;SDS011;49573;47.682;9.170;2022-12-08T10:00:47;12.88;;;7.75;;
63444;SDS011;49573;47.682;9.170;2022-12-08T10:03:33;15.95;;;7.70;;
63444;SDS011;49573;47.682;9.170;2022-12-08T10:06:20;12.88;;;7.80;;
63444;SDS011;49573;47.682;9.170;2022-12-08T10:09:16;13.27;;;7.47;;
63444;SDS011;49573;47.682;9.170;2022-12-08T10:12:13;17.35;;;7.50;;
63444;SDS011;49573;47.682;9.170;2022-12-08T10:15:09;12.82;;;7.82;;
63444;SDS011;49573;47.682;9.170;2022-12-08T10:18:14;11.60;;;6.70;;
63444;SDS011;49573;47.682;9.170;2022-12-08T10:21:07;24.58;;;12.13;;
63444;SDS011;49573;47.682;9.170;2022-12-08T10:23:59;26.95;;;11.95;;
63444;SDS011;49573;47.682;9.170;2022-12-08T10:26:51;12.75;;;7.55;;
63444;SDS011;49573;47.682;9.170;2022-12-08T10:29:39;12.95;;;7.60;;
63444;SDS011;49573;47.682;9.170;2022-12-08T10:32:27;15.27;;;7.17;;
63444;SDS011;49573;47.682;9.170;2022-12-08T10:35:20;13.48;;;7.63;;
63444;SDS011;49573;47.682;9.170;2022-12-08T10:38:14;13.85;;;7.57;;
63444;SDS011;49573;47.682;9.170;2022-12-08T10:41:02;12.07;;;7.07;;
63444;SDS011;49573;47.682;9.170;2022-12-08T10:43:54;13.27;;;7.22;;
63444;SDS011;49573;47.682;9.170;2022-12-08T10:46:45;45.50;;;8.45;;
63444;SDS011;49573;47.682;9.170;2022-12-08T10:49:31;13.20;;;7.57;;
63444;SDS011;49573;47.682;9.170;2022-12-08T10:52:21;16.02;;;8.88;;
63444;SDS011;49573;47.682;9.170;2022-12-08T10:55:14;11.20;;;6.88;;
63444;SDS011;49573;47.682;9.170;2022-12-08T10:58:02;13.38;;;7.30;;
63444;SDS011;49573;47.682;9.170;2022-12-08T11:00:50;12.02;;;7.13;;
63444;SDS011;49573;47.682;9.170;2022-12-08T11:03:42;14.88;;;7.68;;
63444;SDS011;49573;47.682;9.170;2022-12-08T11:06:33;12.30;;;7.00;;
63444;SDS011;49573;47.682;9.170;2022-12-08T11:09:24;11.88;;;7.35;;
63444;SDS011;49573;47.682;9.170;2022-12-08T11:12:20;13.25;;;7.35;;
63444;SDS011;49573;47.682;9.170;2022-12-08T11:18:01;11.48;;;5.97;;
63444;SDS011;49573;47.682;9.170;2022-12-08T11:21:01;11.88;;;6.30;;
63444;SDS011;49573;47.682;9.170;2022-12-08T11:23:54;11.30;;;7.13;;
63444;SDS011;49573;47.682;9.170;2022-12-08T11:26:40;11.02;;;6.22;;
63444;SDS011;49573;47.682;9.170;2022-12-08T11:29:33;11.95;;;6.28;;
63444;SDS011;49573;47.682;9.170;2022-12-08T11:32:20;10.25;;;5.85;;
63444;SDS011;49573;47.682;9.170;2022-12-08T11:35:09;11.02;;;6.40;;
63444;SDS011;49573;47.682;9.170;2022-12-08T11:38:03;11.10;;;6.13;;
63444;SDS011;49573;47.682;9.170;2022-12-08T11:40:55;9.82;;;6.05;;
63444;SDS011;49573;47.682;9.170;2022-12-08T11:43:45;12.63;;;7.03;;
63444;SDS011;49573;47.682;9.170;2022-12-08T11:46:37;11.13;;;6.60;;
63444;SDS011;49573;47.682;9.170;2022-12-08T11:49:30;11.35;;;6.47;;
63444;SDS011;49573;47.682;9.170;2022-12-08T11:52:21;9.55;;;5.80;;
63444;SDS011;49573;47.682;9.170;2022-12-08T11:55:15;11.80;;;6.10;;
63444;SDS011;49573;47.682;9.170;2022-12-08T11:58:13;8.82;;;5.43;;
63444;SDS011;49573;47.682;9.170;2022-12-08T12:01:03;10.55;;;6.15;;
63444;SDS011;49573;47.682;9.170;2022-12-08T12:03:52;9.75;;;5.80;;
63444;SDS011;49573;47.682;9.170;2022-12-08T12:06:48;12.10;;;6.57;;
63444;SDS011;49573;47.682;9.170;2022-12-08T12:09:54;10.98;;;6.18;;
63444;SDS011;49573;47.682;9.170;2022-12-08T12:13:07;10.57;;;5.78;;
63444;SDS011;49573;47.682;9.170;2022-12-08T12:19:27;11.23;;;6.10;;
63444;SDS011;49573;47.682;9.170;2022-12-08T12:22:19;10.18;;;5.85;;
63444;SDS011;49573;47.682;9.170;2022-12-08T12:25:14;11.43;;;6.07;;
63444;SDS011;49573;47.682;9.170;2022-12-08T12:28:03;8.82;;;5.80;;
63444;SDS011;49573;47.682;9.170;2022-12-08T12:30:53;12.43;;;6.43;;
63444;SDS011;49573;47.682;9.170;2022-12-08T12:33:43;10.52;;;6.30;;
63444;SDS011;49573;47.682;9.170;2022-12-08T12:36:31;11.25;;;5.78;;
63444;SDS011;49573;47.682;9.170;2022-12-08T12:39:29;11.95;;;6.40;;
63444;SDS011;49573;47.682;9.170;2022-12-08T12:42:39;10.15;;;6.03;;
63444;SDS011;49573;47.682;9.170;2022-12-08T12:45:28;11.07;;;6.28;;
63444;SDS011;49573;47.682;9.170;2022-12-08T12:48:20;10.57;;;5.97;;
63444;SDS011;49573;47.682;9.170;2022-12-08T12:51:22;10.18;;;5.72;;
63444;SDS011;49573;47.682;9.170;2022-12-08T12:54:27;11.30;;;6.18;;
63444;SDS011;49573;47.682;9.170;2022-12-08T12:57:20;10.55;;;6.25;;
63444;SDS011;49573;47.682;9.170;2022-12-08T13:03:03;11.52;;;6.50;;
63444;SDS011;49573;47.682;9.170;2022-12-08T13:05:57;12.13;;;7.03;;
63444;SDS011;49573;47.682;9.170;2022-12-08T13:08:48;14.45;;;7.80;;
63444;SDS011;49573;47.682;9.170;2022-12-08T13:11:46;12.43;;;6.75;;
63444;SDS011;49573;47.682;9.170;2022-12-08T13:14:36;10.77;;;6.68;;
63444;SDS011;49573;47.682;9.170;2022-12-08T13:17:30;10.88;;;6.20;;
63444;SDS011;49573;47.682;9.170;2022-12-08T13:20:18;12.30;;;5.80;;
63444;SDS011;49573;47.682;9.170;2022-12-08T13:23:11;13.10;;;6.63;;
63444;SDS011;49573;47.682;9.170;2022-12-08T13:26:11;12.05;;;6.47;;
63444;SDS011;49573;47.682;9.170;2022-12-08T13:29:20;13.00;;;6.65;;
63444;SDS011;49573;47.682;9.170;2022-12-08T13:32:50;37.05;;;17.27;;
63444;SDS011;49573;47.682;9.170;2022-12-08T13:35:46;14.00;;;8.15;;
63444;SDS011;49573;47.682;9.170;2022-12-08T13:38:49;17.92;;;10.02;;
63444;SDS011;49573;47.682;9.170;2022-12-08T13:41:42;12.15;;;7.47;;
63444;SDS011;49573;47.682;9.170;2022-12-08T13:44:37;11.60;;;6.90;;
63444;SDS011;49573;47.682;9.170;2022-12-08T13:47:29;14.95;;;8.45;;
63444;SDS011;49573;47.682;9.170;2022-12-08T13:50:21;14.18;;;7.97;;
63444;SDS011;49573;47.682;9.170;2022-12-08T13:53:14;14.02;;;8.40;;
63444;SDS011;49573;47.682;9.170;2022-12-08T13:56:02;12.55;;;6.82;;
63444;SDS011;49573;47.682;9.170;2022-12-08T13:58:50;12.25;;;6.80;;
63444;SDS011;49573;47.682;9.170;2022-12-08T14:01:39;11.48;;;7.20;;
63444;SDS011;49573;47.682;9.170;2022-12-08T14:04:29;13.43;;;7.95;;
63444;SDS011;49573;47.682;9.170;2022-12-08T14:07:16;15.18;;;8.32;;
63444;SDS011;49573;47.682;9.170;2022-12-08T14:10:05;12.23;;;7.22;;
63444;SDS011;49573;47.682;9.170;2022-12-08T14:12:54;12.77;;;7.07;;
63444;SDS011;49573;47.682;9.170;2022-12-08T14:15:43;11.38;;;6.40;;
63444;SDS011;49573;47.682;9.170;2022-12-08T14:18:30;15.48;;;8.38;;
63444;SDS011;49573;47.682;9.170;2022-12-08T14:21:16;13.23;;;7.03;;
63444;SDS011;49573;47.682;9.170;2022-12-08T14:24:03;11.40;;;6.95;;
63444;SDS011;49573;47.682;9.170;2022-12-08T14:26:50;12.13;;;7.38;;
63444;SDS011;49573;47.682;9.170;2022-12-08T14:29:39;13.07;;;7.35;;
63444;SDS011;49573;47.682;9.170;2022-12-08T14:32:28;13.77;;;7.53;;
63444;SDS011;49573;47.682;9.170;2022-12-08T14:35:18;11.80;;;6.35;;
63444;SDS011;49573;47.682;9.170;2022-12-08T14:38:11;11.98;;;6.57;;
63444;SDS011;49573;47.682;9.170;2022-12-08T14:41:03;11.35;;;6.88;;
63444;SDS011;49573;47.682;9.170;2022-12-08T14:43:56;15.05;;;7.72;;
63444;SDS011;49573;47.682;9.170;2022-12-08T14:49:48;12.90;;;7.57;;
63444;SDS011;49573;47.682;9.170;2022-12-08T14:52:34;12.55;;;7.35;;
63444;SDS011;49573;47.682;9.170;2022-12-08T14:55:28;13.88;;;7.55;;
63444;SDS011;49573;47.682;9.170;2022-12-08T14:58:24;14.82;;;8.23;;
63444;SDS011;49573;47.682;9.170;2022-12-08T15:01:13;9.95;;;6.10;;
63444;SDS011;49573;47.682;9.170;2022-12-08T15:04:05;11.55;;;6.38;;
63444;SDS011;49573;47.682;9.170;2022-12-08T15:06:58;13.27;;;7.05;;
63444;SDS011;49573;47.682;9.170;2022-12-08T15:09:49;11.90;;;7.07;;
63444;SDS011;49573;47.682;9.170;2022-12-08T15:12:57;9.10;;;5.82;;
63444;SDS011;49573;47.682;9.170;2022-12-08T15:15:46;10.85;;;5.85;;
63444;SDS011;49573;47.682;9.170;2022-12-08T15:18:35;11.63;;;6.10;;
63444;SDS011;49573;47.682;9.170;2022-12-08T15:21:22;17.42;;;8.93;;
63444;SDS011;49573;47.682;9.170;2022-12-08T15:24:14;18.73;;;9.07;;
63444;SDS011;49573;47.682;9.170;2022-12-08T15:29:48;10.85;;;5.75;;
63444;SDS011;49573;47.682;9.170;2022-12-08T15:32:36;10.77;;;5.30;;
63444;SDS011;49573;47.682;9.170;2022-12-08T15:35:23;11.32;;;5.55;;
63444;SDS011;49573;47.682;9.170;2022-12-08T15:38:15;8.88;;;4.80;;
63444;SDS011;49573;47.682;9.170;2022-12-08T15:41:05;11.65;;;5.32;;
63444;SDS011;49573;47.682;9.170;2022-12-08T15:43:51;8.63;;;5.63;;
63444;SDS011;49573;47.682;9.170;2022-12-08T15:46:37;9.95;;;5.03;;
63444;SDS011;49573;47.682;9.170;2022-12-08T15:49:24;9.43;;;5.22;;
63444;SDS011;49573;47.682;9.170;2022-12-08T15:52:11;9.75;;;5.38;;
63444;SDS011;49573;47.682;9.170;2022-12-08T15:54:59;7.97;;;4.55;;
63444;SDS011;49573;47.682;9.170;2022-12-08T15:57:45;9.90;;;5.30;;
63444;SDS011;49573;47.682;9.170;2022-12-08T16:00:34;8.02;;;5.13;;
63444;SDS011;49573;47.682;9.170;2022-12-08T16:03:22;10.00;;;4.80;;
63444;SDS011;49573;47.682;9.170;2022-12-08T16:06:14;9.45;;;5.55;;
63444;SDS011;49573;47.682;9.170;2022-12-08T16:09:02;8.27;;;4.40;;
63444;SDS011;49573;47.682;9.170;2022-12-08T16:11:48;22.43;;;10.57;;
63444;SDS011;49573;47.682;9.170;2022-12-08T16:14:53;17.45;;;8.95;;
63444;SDS011;49573;47.682;9.170;2022-12-08T16:17:40;14.52;;;9.13;;
63444;SDS011;49573;47.682;9.170;2022-12-08T16:20:26;10.70;;;6.18;;
63444;SDS011;49573;47.682;9.170;2022-12-08T16:23:13;14.02;;;7.53;;
63444;SDS011;49573;47.682;9.170;2022-12-08T16:25:59;12.25;;;7.15;;
63444;SDS011;49573;47.682;9.170;2022-12-08T16:28:46;25.48;;;12.15;;
63444;SDS011;49573;47.682;9.170;2022-12-08T16:31:33;13.23;;;8.02;;
63444;SDS011;49573;47.682;9.170;2022-12-08T16:34:19;14.52;;;6.95;;
63444;SDS011;49573;47.682;9.170;2022-12-08T16:37:05;12.93;;;6.43;;
63444;SDS011;49573;47.682;9.170;2022-12-08T16:39:53;30.33;;;13.05;;
63444;SDS011;49573;47.682;9.170;2022-12-08T16:42:41;14.35;;;6.93;;
63444;SDS011;49573;47.682;9.170;2022-12-08T16:45:28;10.93;;;5.60;;
63444;SDS011;49573;47.682;9.170;2022-12-08T16:48:15;9.02;;;5.30;;
63444;SDS011;49573;47.682;9.170;2022-12-08T16:51:01;9.18;;;5.35;;
63444;SDS011;49573;47.682;9.170;2022-12-08T16:53:48;8.48;;;4.68;;
63444;SDS011;49573;47.682;9.170;2022-12-08T16:56:36;8.32;;;4.93;;
63444;SDS011;49573;47.682;9.170;2022-12-08T16:59:22;10.88;;;5.43;;
63444;SDS011;49573;47.682;9.170;2022-12-08T17:02:09;10.67;;;5.40;;
63444;SDS011;49573;47.682;9.170;2022-12-08T17:04:55;9.02;;;5.38;;
63444;SDS011;49573;47.682;9.170;2022-12-08T17:07:41;9.43;;;5.00;;
63444;SDS011;49573;47.682;9.170;2022-12-08T17:10:30;8.75;;;5.13;;